createdAt,value
2019-03-19T00:00:51.378Z,5.60
2019-03-19T00:06:01.297Z,5.25
2019-03-19T00:11:09.188Z,5.27
2019-03-19T00:16:39.252Z,5.18
2019-03-19T00:21:52.244Z,5.39
2019-03-19T00:27:00.405Z,5.19
2019-03-19T00:32:08.410Z,5.41
2019-03-19T00:37:16.572Z,5.34
2019-03-19T00:42:27.057Z,5.44
2019-03-19T00:47:36.711Z,5.68
2019-03-19T00:52:46.622Z,5.55
2019-03-19T00:57:56.264Z,5.32
2019-03-19T01:03:04.198Z,5.20
2019-03-19T01:08:13.060Z,5.32
2019-03-19T01:13:22.436Z,5.23
2019-03-19T01:18:30.360Z,4.98
2019-03-19T01:23:39.208Z,4.90
2019-03-19T01:28:47.772Z,5.00
2019-03-19T01:33:57.448Z,5.20
2019-03-19T01:39:07.374Z,4.92
2019-03-19T01:44:19.328Z,4.83
2019-03-19T01:49:26.712Z,5.16
2019-03-19T01:54:34.398Z,5.20
2019-03-19T01:59:42.593Z,5.33
2019-03-19T02:04:49.552Z,5.75
2019-03-19T02:10:01.230Z,5.78
2019-03-19T02:15:14.465Z,5.39
2019-03-19T02:20:20.886Z,5.18
2019-03-19T02:25:28.555Z,5.08
2019-03-19T02:30:36.673Z,5.25
2019-03-19T02:35:44.160Z,5.02
2019-03-19T02:40:54.596Z,5.38
2019-03-19T02:46:00.794Z,5.28
2019-03-19T02:51:07.536Z,5.39
2019-03-19T02:56:31.290Z,5.29
2019-03-19T03:01:24.646Z,5.01
2019-03-19T03:06:30.959Z,4.55
2019-03-19T03:11:37.676Z,5.16
2019-03-19T03:16:44.520Z,5.00
2019-03-19T03:21:51.407Z,4.86
2019-03-19T03:27:02.288Z,4.95
2019-03-19T03:32:10.391Z,5.07
2019-03-19T03:37:17.065Z,5.13
2019-03-19T03:42:25.510Z,5.36
2019-03-19T03:47:35.854Z,4.72
2019-03-19T03:52:42.671Z,4.87
2019-03-19T03:57:49.485Z,4.70
2019-03-19T04:02:57.996Z,5.15
2019-03-19T04:08:05.458Z,5.14
2019-03-19T04:13:12.292Z,5.18
2019-03-19T04:18:19.071Z,5.40
2019-03-19T04:23:25.873Z,5.74
2019-03-19T04:28:32.895Z,5.49
2019-03-19T04:33:39.874Z,5.27
2019-03-19T04:38:48.943Z,5.42
2019-03-19T04:43:55.942Z,5.48
2019-03-19T04:49:05.961Z,5.51
2019-03-19T04:54:13.881Z,5.29
2019-03-19T04:59:25.128Z,5.54
2019-03-19T05:04:33.847Z,5.43
2019-03-19T05:09:43.899Z,5.01
2019-03-19T05:14:52.995Z,5.06
2019-03-19T05:20:02.148Z,5.25
2019-03-19T05:25:12.915Z,4.95
2019-03-19T05:30:27.794Z,5.38
2019-03-19T05:35:37.763Z,5.32
2019-03-19T05:40:48.225Z,5.19
2019-03-19T05:45:57.054Z,5.06
2019-03-19T05:51:08.393Z,5.09
2019-03-19T05:56:19.776Z,5.56
2019-03-19T06:01:26.383Z,5.76
2019-03-19T06:06:32.315Z,5.51
2019-03-19T06:11:38.276Z,5.59
2019-03-19T06:16:44.168Z,5.65
2019-03-19T06:21:50.238Z,5.70
2019-03-19T06:26:57.431Z,5.85
2019-03-19T06:32:04.715Z,6.51
2019-03-19T06:37:12.231Z,5.76
2019-03-19T06:42:19.487Z,6.09
2019-03-19T06:47:25.319Z,5.60
2019-03-19T06:52:31.926Z,5.76
2019-03-19T06:57:39.695Z,5.46
2019-03-19T07:02:46.606Z,5.79
2019-03-19T07:07:52.787Z,5.69
2019-03-19T07:12:58.894Z,5.53
2019-03-19T07:18:06.157Z,5.94
2019-03-19T07:23:13.565Z,5.64
2019-03-19T07:28:22.201Z,6.29
2019-03-19T07:33:29.227Z,6.82
2019-03-19T07:38:37.269Z,6.04
2019-03-19T07:43:44.950Z,5.86
2019-03-19T07:48:51.468Z,6.57
2019-03-19T07:53:57.943Z,5.80
2019-03-19T07:59:05.254Z,6.01
2019-03-19T08:04:11.246Z,5.92
2019-03-19T08:09:17.712Z,5.99
2019-03-19T08:14:24.368Z,6.32
2019-03-19T08:19:31.550Z,6.09
2019-03-19T08:24:38.462Z,6.60
2019-03-19T08:29:45.176Z,6.63
2019-03-19T08:34:51.191Z,6.86
2019-03-19T08:39:57.240Z,6.77
2019-03-19T08:45:03.261Z,7.55
2019-03-19T08:50:14.747Z,7.56
2019-03-19T08:55:22.192Z,7.32
2019-03-19T09:00:28.826Z,7.90
2019-03-19T09:05:34.652Z,8.01
2019-03-19T09:10:40.592Z,7.82
2019-03-19T09:15:47.503Z,7.48
2019-03-19T09:20:54.286Z,8.62
2019-03-19T09:26:00.714Z,7.92
2019-03-19T09:31:07.164Z,7.90
2019-03-19T09:36:14.033Z,8.17
2019-03-19T09:41:22.150Z,7.74
2019-03-19T09:46:28.258Z,8.23
2019-03-19T09:51:34.482Z,8.23
2019-03-19T09:56:40.352Z,8.33
2019-03-19T10:01:46.924Z,9.30
2019-03-19T10:06:53.214Z,9.60
2019-03-19T10:11:58.863Z,9.00
2019-03-19T10:17:04.704Z,8.98
2019-03-19T10:22:11.308Z,8.64
2019-03-19T10:27:16.934Z,9.82
2019-03-19T10:32:22.906Z,9.26
2019-03-19T10:37:28.469Z,9.93
2019-03-19T10:42:34.932Z,9.86
2019-03-19T10:47:40.739Z,9.46
2019-03-19T10:52:47.156Z,9.78
2019-03-19T10:57:54.348Z,9.40
2019-03-19T11:02:59.921Z,10.18
2019-03-19T11:08:07.079Z,9.35
2019-03-19T11:13:12.675Z,9.73
2019-03-19T11:18:19.857Z,9.01
2019-03-19T11:23:25.811Z,9.47
2019-03-19T11:28:31.623Z,9.02
2019-03-19T11:33:37.317Z,8.56
2019-03-19T11:38:43.389Z,9.10
2019-03-19T11:43:49.232Z,8.81
2019-03-19T11:48:54.948Z,9.20
2019-03-19T11:54:00.517Z,10.79
2019-03-19T11:59:06.458Z,11.43
2019-03-19T12:04:12.043Z,10.68
2019-03-19T12:09:18.181Z,10.10
2019-03-19T12:14:24.401Z,10.29
2019-03-19T12:19:32.259Z,9.76
2019-03-19T12:24:38.605Z,9.02
2019-03-19T12:29:46.034Z,9.10
2019-03-19T12:34:53.751Z,9.45
2019-03-19T12:40:00.368Z,9.00
2019-03-19T12:45:08.922Z,8.87
2019-03-19T12:50:19.704Z,9.43
2019-03-19T12:55:26.024Z,8.88
2019-03-19T13:00:34.572Z,9.06
2019-03-19T13:05:39.676Z,9.43
2019-03-19T13:10:45.725Z,8.92
2019-03-19T13:15:52.030Z,9.13
2019-03-19T13:20:58.946Z,9.09
2019-03-19T13:26:04.568Z,9.69
2019-03-19T13:31:10.656Z,9.78
2019-03-19T13:36:16.354Z,9.92
2019-03-19T13:41:23.815Z,10.05
2019-03-19T13:46:30.131Z,9.95
2019-03-19T13:51:37.776Z,10.39
2019-03-19T13:56:43.381Z,10.29
2019-03-19T14:01:49.930Z,10.33
2019-03-19T14:06:55.765Z,9.70
2019-03-19T14:12:01.844Z,10.26
2019-03-19T14:17:09.179Z,9.75
2019-03-19T14:22:15.701Z,10.43
2019-03-19T14:27:22.046Z,10.35
2019-03-19T14:32:28.171Z,10.72
2019-03-19T14:37:35.153Z,10.56
2019-03-19T14:42:42.520Z,11.06
2019-03-19T14:47:50.541Z,10.61
2019-03-19T14:52:57.600Z,11.28
2019-03-19T14:58:04.130Z,11.70
2019-03-19T15:03:10.067Z,12.87
2019-03-19T15:08:16.795Z,12.66
2019-03-19T15:13:22.744Z,11.34
2019-03-19T15:18:28.751Z,10.63
2019-03-19T15:23:36.822Z,10.63
2019-03-19T15:28:46.445Z,10.29
2019-03-19T15:33:54.797Z,10.66
2019-03-19T15:39:01.058Z,10.57
2019-03-19T15:44:10.160Z,10.38
2019-03-19T15:49:16.330Z,10.95
2019-03-19T15:54:22.656Z,11.50
2019-03-19T15:59:29.670Z,10.48
2019-03-19T16:04:35.792Z,9.99
2019-03-19T16:09:41.985Z,10.27
2019-03-19T16:14:49.082Z,10.01
2019-03-19T16:19:57.028Z,11.06
2019-03-19T16:25:03.225Z,11.54
2019-03-19T16:30:16.236Z,11.32
2019-03-19T16:35:24.894Z,10.56
2019-03-19T16:40:31.276Z,10.13
2019-03-19T16:45:37.726Z,9.78
2019-03-19T16:50:43.867Z,9.55
2019-03-19T16:55:52.352Z,9.96
2019-03-19T17:00:59.690Z,9.81
2019-03-19T17:06:06.357Z,9.86
2019-03-19T17:11:11.999Z,9.97
2019-03-19T17:16:18.972Z,9.74
2019-03-19T17:21:26.217Z,10.18
2019-03-19T17:26:32.303Z,10.56
2019-03-19T17:31:38.625Z,10.54
2019-03-19T17:36:44.572Z,10.11
2019-03-19T17:41:50.614Z,10.22
2019-03-19T17:46:56.887Z,10.21
2019-03-19T17:52:02.641Z,10.06
2019-03-19T17:57:08.525Z,9.87
2019-03-19T18:02:23.578Z,9.98
2019-03-19T18:07:23.925Z,9.63
2019-03-19T18:12:30.236Z,9.77
2019-03-19T18:17:36.832Z,9.49
2019-03-19T18:22:42.772Z,9.15
2019-03-19T18:27:48.756Z,9.04
2019-03-19T18:32:55.559Z,9.34
2019-03-19T18:38:02.030Z,8.81
2019-03-19T18:43:07.886Z,9.11
2019-03-19T18:48:13.814Z,9.39
2019-03-19T18:53:20.885Z,8.48
2019-03-19T18:58:27.147Z,8.50
2019-03-19T19:03:33.986Z,8.35
2019-03-19T19:08:40.275Z,8.42
2019-03-19T19:13:48.118Z,8.61
2019-03-19T19:18:55.172Z,8.52
2019-03-19T19:24:01.972Z,8.41
2019-03-19T19:29:07.970Z,8.67
2019-03-19T19:34:14.340Z,8.53
2019-03-19T19:39:20.870Z,8.49
2019-03-19T19:44:29.876Z,8.62
2019-03-19T19:49:35.296Z,8.21
2019-03-19T19:54:41.526Z,8.73
2019-03-19T19:59:47.467Z,8.65
2019-03-19T20:05:02.617Z,8.71
2019-03-19T20:10:02.540Z,8.58
2019-03-19T20:15:10.826Z,7.98
2019-03-19T20:20:22.487Z,8.17
2019-03-19T20:25:28.498Z,8.07
2019-03-19T20:30:35.322Z,8.23
2019-03-19T20:35:42.461Z,7.94
2019-03-19T20:40:48.997Z,8.23
2019-03-19T20:45:54.657Z,8.48
2019-03-19T20:51:02.042Z,8.20
2019-03-19T20:56:09.539Z,8.53
2019-03-19T21:01:22.078Z,8.18
2019-03-19T21:06:28.903Z,8.42
2019-03-19T21:11:37.610Z,7.38
2019-03-19T21:16:44.783Z,7.90
2019-03-19T21:21:50.349Z,7.80
2019-03-19T21:26:56.614Z,8.14
2019-03-19T21:32:04.627Z,7.18
2019-03-19T21:37:10.895Z,7.64
2019-03-19T21:42:18.342Z,6.98
2019-03-19T21:47:24.471Z,6.80
2019-03-19T21:52:29.999Z,7.36
2019-03-19T21:57:36.166Z,6.78
2019-03-19T22:02:43.219Z,6.53
2019-03-19T22:07:50.529Z,6.84
2019-03-19T22:12:56.280Z,7.14
2019-03-19T22:18:03.436Z,7.05
2019-03-19T22:23:09.173Z,7.24
2019-03-19T22:28:15.072Z,6.89
2019-03-19T22:33:23.219Z,7.16
2019-03-19T22:38:29.175Z,7.42
2019-03-19T22:43:36.349Z,7.51
2019-03-19T22:48:42.862Z,7.27
2019-03-19T22:53:48.872Z,6.72
2019-03-19T22:58:54.415Z,6.96
2019-03-19T23:04:00.010Z,7.13
2019-03-19T23:09:07.493Z,7.32
2019-03-19T23:14:14.790Z,7.49
2019-03-19T23:19:22.147Z,7.52
2019-03-19T23:24:28.083Z,7.48
2019-03-19T23:29:33.854Z,7.55
2019-03-19T23:34:41.037Z,7.60
2019-03-19T23:39:47.233Z,7.41
2019-03-19T23:44:52.871Z,6.99
2019-03-19T23:49:58.772Z,7.33
2019-03-19T23:55:06.669Z,7.10
